Time;durP1;ratioP1;P1;durP2;ratioP2;P2;SDS_P1;SDS_P2;PMS_P1;PMS_P2;Temp;Humidity;BMP_temperature;BMP_pressure;BME280_temperature;BME280_humidity;BME280_pressure;Samples;Min_cycle;Max_cycle;Signal;HPM_P1;HPM_P2
2022/04/21 00:00:17;;;;;;;8.65;5.55;;;;;;;9.65;55.12;101168.78;4989566;28;20502;-90
2022/04/21 00:02:43;;;;;;;8.40;5.53;;;;;;;9.64;55.12;101174.16;4977791;28;20484;-90
2022/04/21 00:05:09;;;;;;;9.20;6.00;;;;;;;9.58;55.36;101164.66;4977511;28;20100;-90
2022/04/21 00:07:35;;;;;;;8.02;5.82;;;;;;;9.59;55.33;101165.53;4990680;28;20476;-90
2022/04/21 00:10:02;;;;;;;8.95;5.75;;;;;;;9.56;55.41;101160.31;4983572;28;20034;-90
2022/04/21 00:12:28;;;;;;;8.27;5.57;;;;;;;9.51;55.66;101164.97;4988087;28;20085;-91
2022/04/21 00:14:54;;;;;;;9.93;6.00;;;;;;;9.48;55.77;101166.81;4983591;28;20034;-90
2022/04/21 00:17:19;;;;;;;8.38;6.15;;;;;;;9.46;55.95;101163.38;4986948;28;20038;-90
2022/04/21 00:19:44;;;;;;;7.82;5.40;;;;;;;9.44;55.93;101167.00;4990385;28;20024;-90
2022/04/21 00:24:53;;;;;;;9.50;5.72;;;;;;;9.39;55.90;101161.88;4987905;28;20157;-90
2022/04/21 00:27:19;;;;;;;8.68;5.80;;;;;;;9.39;56.08;101171.66;4989911;28;20379;-91
2022/04/21 00:29:44;;;;;;;8.57;5.85;;;;;;;9.36;56.28;101163.78;4980466;28;20100;-90
2022/04/21 00:32:10;;;;;;;8.07;5.65;;;;;;;9.31;56.35;101158.66;4984210;28;20030;-90
2022/04/21 00:34:35;;;;;;;9.20;5.65;;;;;;;9.31;56.48;101155.16;4984679;28;20111;-90
2022/04/21 00:37:01;;;;;;;7.50;5.75;;;;;;;9.29;56.73;101160.53;4985483;28;20045;-90
2022/04/21 00:39:27;;;;;;;7.53;6.00;;;;;;;9.27;56.45;101150.91;4989638;28;20030;-91
2022/04/21 00:42:00;;;;;;;8.55;5.95;;;;;;;9.29;56.72;101157.88;4989960;28;20070;-90
2022/04/21 00:44:26;;;;;;;10.05;5.60;;;;;;;9.23;56.64;101148.34;4965115;28;20551;-90
2022/04/21 00:46:53;;;;;;;12.00;5.65;;;;;;;9.18;56.75;101138.84;4985897;28;20034;-90
2022/04/21 00:49:21;;;;;;;9.60;5.57;;;;;;;9.19;56.95;101146.75;4987671;28;20034;-90
2022/04/21 00:51:46;;;;;;;6.28;5.53;;;;;;;9.14;56.96;101145.22;4989085;28;20465;-90
2022/04/21 00:54:12;;;;;;;10.50;5.57;;;;;;;9.12;57.37;101147.94;4987525;28;20029;-90
2022/04/21 00:56:41;;;;;;;8.75;5.93;;;;;;;9.11;57.60;101145.31;4986781;28;20094;-90
2022/04/21 00:59:07;;;;;;;8.00;5.97;;;;;;;9.09;57.76;101139.22;4985702;28;20081;-90
2022/04/21 01:04:21;;;;;;;7.68;5.60;;;;;;;9.06;57.54;101136.69;4975746;28;20068;-89
2022/04/21 01:06:46;;;;;;;8.07;6.13;;;;;;;9.04;57.69;101141.22;4982060;28;20387;-89
2022/04/21 01:09:11;;;;;;;7.82;6.07;;;;;;;9.04;57.38;101143.88;4971100;28;20113;-88
2022/04/21 01:11:38;;;;;;;8.10;5.88;;;;;;;9.00;57.48;101143.13;4990423;28;20113;-90
2022/04/21 01:14:04;;;;;;;8.57;6.00;;;;;;;8.89;57.95;101138.22;4982383;28;20029;-89
2022/04/21 01:16:29;;;;;;;7.70;5.60;;;;;;;8.90;58.04;101141.72;4988377;28;20027;-89
2022/04/21 01:18:56;;;;;;;9.82;6.40;;;;;;;8.90;58.35;101142.63;4983133;28;20030;-90
2022/04/21 01:21:21;;;;;;;6.70;5.80;;;;;;;8.89;58.40;101148.81;4983771;28;20035;-90
2022/04/21 01:23:46;;;;;;;11.98;6.63;;;;;;;8.79;58.70;101141.31;4974763;28;20415;-89
2022/04/21 01:26:12;;;;;;;7.18;5.95;;;;;;;8.79;59.02;101142.16;4985024;28;20109;-90
2022/04/21 01:28:37;;;;;;;9.30;6.28;;;;;;;8.76;58.83;101144.06;4989159;28;20030;-90
2022/04/21 01:31:03;;;;;;;8.75;6.28;;;;;;;8.68;59.22;101144.34;4989166;28;20026;-90
2022/04/21 01:33:28;;;;;;;6.82;5.60;;;;;;;8.62;59.19;101137.50;4981950;28;20137;-90
2022/04/21 01:35:53;;;;;;;6.80;6.07;;;;;;;8.55;59.52;101137.78;4982597;28;20027;-90
2022/04/21 01:41:11;;;;;;;8.75;6.20;;;;;;;8.48;59.74;101143.34;4989325;28;20074;-90
2022/04/21 01:43:38;;;;;;;6.40;5.78;;;;;;;8.36;59.97;101130.50;4976294;28;20061;-90
2022/04/21 01:46:04;;;;;;;9.15;5.93;;;;;;;8.36;60.02;101140.22;4988182;28;20037;-90
2022/04/21 01:48:29;;;;;;;11.02;6.47;;;;;;;8.36;60.02;101140.22;4988178;28;20028;-90
2022/04/21 01:50:55;;;;;;;7.63;6.45;;;;;;;8.26;60.18;101123.78;4988114;28;20030;-90
2022/04/21 01:53:20;;;;;;;9.23;5.93;;;;;;;8.26;60.18;101129.09;4980698;28;20036;-90
2022/04/21 01:55:48;;;;;;;9.07;6.72;;;;;;;8.23;60.47;101129.19;4985183;28;20101;-90
2022/04/21 01:58:13;;;;;;;10.50;6.18;;;;;;;8.18;60.53;101124.06;4988689;28;20065;-91
2022/04/21 02:00:40;;;;;;;8.75;6.07;;;;;;;8.19;60.54;101127.56;4984028;28;20581;-89
2022/04/21 02:03:05;;;;;;;11.50;6.32;;;;;;;8.15;61.01;101128.59;4977844;28;20117;-91
2022/04/21 02:05:30;;;;;;;11.18;6.57;;;;;;;8.15;60.73;101125.94;4986484;28;20463;-90
2022/04/21 02:07:56;;;;;;;9.57;6.15;;;;;;;8.15;60.99;101125.94;4970750;28;20042;-90
2022/04/21 02:10:24;;;;;;;7.50;6.03;;;;;;;8.14;60.78;101118.94;4987560;28;20026;-91
2022/04/21 02:12:50;;;;;;;8.35;6.32;;;;;;;8.12;60.78;101123.44;4979076;28;20030;-91
2022/04/21 02:15:17;;;;;;;9.77;5.88;;;;;;;8.18;60.44;101128.50;4978488;28;20388;-91
2022/04/21 02:17:44;;;;;;;6.68;5.97;;;;;;;8.16;60.57;101131.22;4972721;28;20027;-91
2022/04/21 02:20:12;;;;;;;9.50;6.82;;;;;;;8.13;60.74;101127.81;4989772;28;20376;-91
2022/04/21 02:22:37;;;;;;;8.88;6.00;;;;;;;8.08;60.39;101121.81;4981465;28;20051;-91
2022/04/21 02:25:04;;;;;;;11.70;5.82;;;;;;;8.08;60.74;101127.97;4982553;28;20035;-91
2022/04/21 02:27:29;;;;;;;8.50;6.70;;;;;;;8.02;61.09;101120.22;4983168;28;20034;-91
2022/04/21 02:29:55;;;;;;;9.25;6.55;;;;;;;8.02;61.13;101127.31;4989170;28;20030;-90
2022/04/21 02:32:21;;;;;;;10.15;6.78;;;;;;;7.97;61.15;101123.03;4974451;28;20027;-91
2022/04/21 02:34:47;;;;;;;8.20;6.53;;;;;;;7.92;61.56;101130.31;4980379;28;20054;-91
2022/04/21 02:37:12;;;;;;;9.63;6.32;;;;;;;7.89;61.54;101124.25;4970289;28;20134;-91
2022/04/21 02:39:37;;;;;;;7.50;6.35;;;;;;;7.83;61.59;101125.34;4982326;28;20034;-91
2022/04/21 02:42:03;;;;;;;9.25;7.10;;;;;;;7.77;61.88;101124.66;4980648;28;20041;-91
2022/04/21 02:44:29;;;;;;;10.85;6.75;;;;;;;7.75;61.89;101119.44;4973897;28;20049;-90
2022/04/21 02:46:54;;;;;;;7.55;5.97;;;;;;;7.70;62.35;101127.53;4974118;28;20046;-90
2022/04/21 02:49:19;;;;;;;11.48;6.28;;;;;;;7.63;62.35;101122.50;4972422;28;20101;-91
2022/04/21 02:51:45;;;;;;;8.60;6.38;;;;;;;7.60;62.24;101122.59;4971721;28;21415;-90
2022/04/21 02:59:41;;;;;;;9.05;6.32;;;;;;;7.47;62.98;101127.44;4972661;28;20226;-90
2022/04/21 03:02:06;;;;;;;8.27;6.75;;;;;;;7.45;62.83;101135.44;4974686;28;20034;-91
2022/04/21 03:04:31;;;;;;;9.10;6.28;;;;;;;7.46;62.88;101131.03;4980655;28;20400;-91
2022/04/21 03:06:57;;;;;;;8.30;6.07;;;;;;;7.39;63.10;101129.47;4952889;28;20579;-91
2022/04/21 03:09:22;;;;;;;8.02;6.00;;;;;;;7.44;62.76;101132.84;4975742;28;20034;-91
2022/04/21 03:11:48;;;;;;;7.22;6.45;;;;;;;7.44;62.97;101128.44;4973616;28;20025;-91
2022/04/21 03:14:14;;;;;;;7.45;6.57;;;;;;;7.40;63.12;101123.28;4975704;28;20053;-91
2022/04/21 03:16:39;;;;;;;7.97;5.63;;;;;;;7.35;64.04;101119.91;4976102;28;20049;-91
2022/04/21 03:19:05;;;;;;;8.05;6.28;;;;;;;7.34;64.06;101124.34;4975144;28;20559;-91
2022/04/21 03:24:20;;;;;;;8.57;6.25;;;;;;;7.24;64.31;101129.09;4990693;28;20093;-91
2022/04/21 03:26:51;;;;;;;9.50;6.55;;;;;;;7.19;64.42;101115.13;4987680;28;20558;-91
2022/04/21 03:29:17;;;;;;;8.65;6.55;;;;;;;7.15;65.18;101124.09;4987671;28;20105;-91
2022/04/21 03:31:43;;;;;;;9.32;6.95;;;;;;;7.08;64.89;101126.97;4977489;28;20420;-91
2022/04/21 03:34:12;;;;;;;8.65;7.03;;;;;;;7.05;64.89;101125.28;4981815;28;20102;-90
2022/04/21 03:36:38;;;;;;;9.18;6.65;;;;;;;7.04;64.62;101126.19;4990804;28;20479;-91
2022/04/21 03:39:03;;;;;;;7.32;6.57;;;;;;;7.01;64.79;101128.06;4991488;28;20081;-91
2022/04/21 03:41:28;;;;;;;8.63;6.95;;;;;;;6.98;64.29;101115.78;4988035;28;20030;-92
2022/04/21 03:43:54;;;;;;;9.55;6.70;;;;;;;6.98;64.35;101126.38;4981361;28;20033;-91
2022/04/21 03:46:19;;;;;;;9.65;6.32;;;;;;;7.01;64.34;101128.94;4986213;28;20031;-90
2022/04/21 03:48:44;;;;;;;8.77;6.75;;;;;;;6.98;64.52;101127.28;4984507;28;20030;-90
2022/04/21 03:51:10;;;;;;;8.65;6.85;;;;;;;6.96;64.72;101131.72;4992177;28;20038;-90
2022/04/21 03:53:35;;;;;;;8.77;6.57;;;;;;;6.96;64.19;101133.53;4992636;28;20133;-91
2022/04/21 03:56:00;;;;;;;7.18;6.43;;;;;;;6.92;64.62;101127.44;4989672;28;20023;-91
2022/04/21 03:58:26;;;;;;;10.40;6.85;;;;;;;6.90;65.09;101134.59;4979930;28;20300;-91
2022/04/21 04:00:51;;;;;;;10.20;7.07;;;;;;;6.87;65.17;101137.31;4986350;28;20034;-90
2022/04/21 04:03:16;;;;;;;8.77;6.53;;;;;;;6.79;65.17;101123.47;4987026;28;20049;-89
2022/04/21 04:05:42;;;;;;;12.50;6.68;;;;;;;6.84;65.01;101126.81;4984568;28;20384;-90
2022/04/21 04:10:52;;;;;;;10.02;7.15;;;;;;;6.79;65.38;101136.69;4987375;28;20097;-91
2022/04/21 04:13:24;;;;;;;7.85;6.50;;;;;;;6.79;65.79;101136.69;4959354;28;20456;-90
2022/04/21 04:15:51;;;;;;;9.88;6.88;;;;;;;6.73;65.60;101139.53;4967650;28;20053;-91
2022/04/21 04:18:18;;;;;;;11.43;7.00;;;;;;;6.69;65.70;101136.09;4978950;28;20033;-91
2022/04/21 04:20:44;;;;;;;9.90;7.18;;;;;;;6.68;65.75;101133.50;4988664;28;20062;-90
2022/04/21 04:23:09;;;;;;;9.48;7.35;;;;;;;6.65;65.77;101128.31;4986207;28;20041;-91
2022/04/21 04:25:37;;;;;;;9.98;7.40;;;;;;;6.64;65.54;101134.50;4984688;28;20042;-91
2022/04/21 04:28:04;;;;;;;9.45;6.80;;;;;;;6.56;65.77;101129.44;4963542;28;20493;-91
2022/04/21 04:30:29;;;;;;;11.00;6.78;;;;;;;6.59;65.70;101136.41;4986695;28;20041;-90
2022/04/21 04:32:55;;;;;;;7.55;6.75;;;;;;;6.58;65.67;101137.34;4974960;28;20023;-90
2022/04/21 04:35:21;;;;;;;9.68;7.00;;;;;;;6.56;65.83;101141.78;4989072;28;20064;-90
2022/04/21 04:37:46;;;;;;;8.30;7.07;;;;;;;6.55;65.83;101140.06;4974245;28;20502;-91
2022/04/21 04:40:12;;;;;;;11.50;7.22;;;;;;;6.55;65.70;101146.22;4990238;28;20193;-89
2022/04/21 04:42:38;;;;;;;10.35;7.20;;;;;;;6.56;65.63;101142.66;4982619;28;20476;-89
2022/04/21 04:47:47;;;;;;;10.45;7.88;;;;;;;6.48;65.94;101137.59;4975979;28;20077;-90
2022/04/21 04:50:12;;;;;;;8.60;7.05;;;;;;;6.49;65.99;101141.97;4978805;28;20027;-89
2022/04/21 04:52:38;;;;;;;10.32;7.07;;;;;;;6.59;65.56;101149.63;4980475;28;20030;-90
2022/04/21 04:55:07;;;;;;;9.48;6.80;;;;;;;6.56;65.81;101142.66;4989358;28;20027;-90
2022/04/21 04:57:33;;;;;;;10.15;7.40;;;;;;;6.58;65.77;101138.19;4969872;28;20038;-89
2022/04/21 04:59:58;;;;;;;9.90;7.18;;;;;;;6.59;65.63;101134.63;4979524;28;20034;-89
2022/04/21 05:02:23;;;;;;;10.32;6.72;;;;;;;6.58;65.78;101137.34;4983258;28;20030;-89
2022/04/21 05:04:48;;;;;;;9.70;6.53;;;;;;;6.62;65.83;101139.84;4988600;28;20036;-89
2022/04/21 05:07:14;;;;;;;9.75;7.03;;;;;;;6.63;65.64;101135.41;4989028;28;20050;-90
2022/04/21 05:09:40;;;;;;;11.57;7.32;;;;;;;6.61;65.49;101129.31;4988430;28;20592;-90
2022/04/21 05:12:06;;;;;;;13.10;7.13;;;;;;;6.64;65.67;101131.84;4984616;28;20104;-89
2022/04/21 05:14:31;;;;;;;9.88;7.00;;;;;;;6.69;65.44;101136.09;4988211;28;20057;-89
2022/04/21 05:16:56;;;;;;;9.68;6.80;;;;;;;6.69;65.53;101129.94;4980818;28;20027;-89
2022/04/21 05:19:22;;;;;;;8.82;7.13;;;;;;;6.71;65.24;101136.91;4985689;28;20460;-90
2022/04/21 05:21:49;;;;;;;10.05;7.53;;;;;;;6.67;65.16;101126.47;4952011;28;20030;-90
2022/04/21 05:24:15;;;;;;;10.40;7.28;;;;;;;6.78;65.18;101137.59;4983080;28;20073;-90
2022/04/21 05:26:41;;;;;;;9.52;7.00;;;;;;;6.79;65.05;101141.13;4965510;28;20051;-89
2022/04/21 05:31:55;;;;;;;10.75;7.28;;;;;;;6.84;65.10;101141.84;4980164;28;20494;-89
2022/04/21 05:34:20;;;;;;;11.57;7.07;;;;;;;6.86;64.89;101132.09;4981228;28;20030;-89
2022/04/21 05:36:46;;;;;;;8.15;7.13;;;;;;;6.91;64.95;101131.03;4983140;28;20199;-89
2022/04/21 05:39:12;;;;;;;9.20;6.78;;;;;;;7.07;64.54;101131.41;4987871;28;20050;-88
2022/04/21 05:41:37;;;;;;;9.77;7.03;;;;;;;7.21;63.95;101137.13;4965691;28;20411;-90
2022/04/21 05:44:03;;;;;;;9.35;6.72;;;;;;;7.42;63.58;101132.03;4982793;28;20038;-89
2022/04/21 05:46:29;;;;;;;10.18;6.80;;;;;;;7.61;63.12;101138.47;4979274;28;20038;-89
2022/04/21 05:48:54;;;;;;;10.15;7.40;;;;;;;7.78;62.42;101131.72;4986420;28;20031;-89
2022/04/21 05:51:21;;;;;;;9.20;6.63;;;;;;;8.03;61.52;101118.47;4966442;28;20042;-89
2022/04/21 05:53:49;;;;;;;8.18;6.88;;;;;;;8.22;61.10;101127.47;4980668;28;20018;-89
2022/04/21 05:56:15;;;;;;;11.00;7.15;;;;;;;8.36;60.97;101132.25;4985409;28;20034;-90
2022/04/21 05:58:41;;;;;;;9.85;7.00;;;;;;;8.53;60.42;101129.00;4971883;28;20030;-89
2022/04/21 06:01:08;;;;;;;9.75;6.22;;;;;;;8.62;59.64;101118.06;4979389;28;20122;-88
2022/04/21 06:03:36;;;;;;;8.93;6.90;;;;;;;8.87;59.18;101129.47;4984614;28;20041;-90
2022/04/21 06:06:02;;;;;;;8.38;6.45;;;;;;;9.02;58.25;101135.94;4987935;28;20022;-91
2022/04/21 06:08:27;;;;;;;10.25;6.90;;;;;;;9.25;58.13;101124.41;4980568;28;20034;-91
2022/04/21 06:10:53;;;;;;;8.50;6.80;;;;;;;9.31;57.57;101129.44;4976727;28;20440;-89
2022/04/21 06:13:19;;;;;;;7.25;6.35;;;;;;;9.35;57.01;101116.91;4986680;28;20041;-88
2022/04/21 06:15:45;;;;;;;8.52;6.40;;;;;;;9.54;57.23;101128.50;4979637;28;20018;-88
2022/04/21 06:18:10;;;;;;;10.85;6.20;;;;;;;9.63;55.72;101129.91;4973193;28;20077;-88
2022/04/21 06:20:35;;;;;;;10.30;6.35;;;;;;;9.77;55.43;101130.19;4979267;28;20026;-88
2022/04/21 06:23:01;;;;;;;8.73;6.38;;;;;;;9.91;55.66;101130.47;4983369;28;20520;-88
2022/04/21 06:25:26;;;;;;;8.15;6.43;;;;;;;10.07;54.53;101121.78;4985104;28;20033;-88
2022/04/21 06:27:52;;;;;;;9.15;6.47;;;;;;;10.23;54.37;101122.84;4982845;28;20420;-90
2022/04/21 06:30:18;;;;;;;8.25;6.05;;;;;;;10.37;53.72;101117.81;4982564;28;20086;-90
2022/04/21 06:32:43;;;;;;;7.60;6.03;;;;;;;10.63;53.16;101124.59;4981086;28;20061;-89
2022/04/21 06:35:09;;;;;;;8.07;6.47;;;;;;;10.74;52.61;101121.41;4969533;28;20073;-90
2022/04/21 06:37:35;;;;;;;8.65;6.28;;;;;;;10.85;52.08;101121.78;4990129;28;20030;-91
2022/04/21 06:40:01;;;;;;;7.85;6.00;;;;;;;10.97;51.01;101123.84;4972913;28;20038;-90
2022/04/21 06:42:26;;;;;;;8.27;6.22;;;;;;;11.07;50.26;101123.41;4971131;28;20032;-92
2022/04/21 06:50:19;;;;;;;9.75;6.07;;;;;;;11.52;49.53;101106.09;4975023;28;20523;-88
2022/04/21 06:52:44;;;;;;;8.45;6.25;;;;;;;11.69;49.15;101104.28;4976699;28;20054;-89
2022/04/21 06:55:10;;;;;;;8.10;5.70;;;;;;;11.89;48.38;101115.75;4985682;28;20072;-89
2022/04/21 06:57:35;;;;;;;7.47;5.95;;;;;;;11.98;47.86;101101.06;4989060;28;20029;-87
2022/04/21 07:00:00;;;;;;;6.65;5.93;;;;;;;12.18;47.82;101103.56;4982445;28;20026;-86
2022/04/21 07:02:27;;;;;;;8.27;6.20;;;;;;;12.33;47.32;101107.19;4983306;28;20522;-85
2022/04/21 07:04:52;;;;;;;10.20;6.00;;;;;;;12.47;46.87;101110.00;4989774;28;20026;-86
2022/04/21 07:07:18;;;;;;;8.35;6.03;;;;;;;12.56;46.38;101111.28;4978552;28;20495;-85
2022/04/21 07:09:43;;;;;;;8.90;6.07;;;;;;;12.82;46.36;101101.84;4972829;28;20372;-88
2022/04/21 07:12:09;;;;;;;10.18;7.53;;;;;;;13.12;45.70;101105.44;4961740;28;20042;-89
2022/04/21 07:14:35;;;;;;;11.02;6.50;;;;;;;13.34;44.21;101113.13;4982979;28;20058;-88
2022/04/21 07:17:00;;;;;;;7.53;6.28;;;;;;;13.49;44.31;101102.47;4983603;28;20058;-87
2022/04/21 07:19:25;;;;;;;6.82;5.90;;;;;;;13.76;43.86;101106.19;4989327;28;20108;-88
2022/04/21 07:21:50;;;;;;;7.38;5.72;;;;;;;14.04;43.12;101107.19;4982015;28;20030;-88
2022/04/21 07:24:16;;;;;;;8.43;5.88;;;;;;;14.24;42.65;101108.66;4982049;28;20086;-88
2022/04/21 07:26:41;;;;;;;6.70;5.43;;;;;;;14.43;41.04;101104.72;4992917;28;20049;-87
2022/04/21 07:29:06;;;;;;;8.07;5.60;;;;;;;14.52;41.22;101114.03;4995348;28;20414;-87
2022/04/21 07:31:32;;;;;;;7.40;5.90;;;;;;;14.70;41.57;101114.69;4965970;28;20519;-89
2022/04/21 07:33:57;;;;;;;8.77;5.93;;;;;;;15.01;40.48;101121.63;4983117;28;20034;-85
2022/04/21 07:36:22;;;;;;;9.73;5.88;;;;;;;15.21;40.09;101114.94;4962703;28;20519;-87
2022/04/21 07:38:49;;;;;;;6.82;5.63;;;;;;;15.70;39.33;101119.72;4984623;28;20037;-87
2022/04/21 07:41:14;;;;;;;7.22;5.85;;;;;;;16.17;38.65;101119.13;4984646;28;20109;-86
2022/04/21 07:43:42;;;;;;;8.70;5.78;;;;;;;16.50;37.35;101111.50;4988298;28;20398;-86
2022/04/21 07:46:09;;;;;;;8.07;5.68;;;;;;;16.75;37.05;101118.69;4983490;28;20069;-87
2022/04/21 07:51:18;;;;;;;9.02;6.50;;;;;;;17.03;35.95;101112.16;4977956;28;20112;-87
2022/04/21 07:53:43;;;;;;;6.40;5.20;;;;;;;17.39;35.47;101122.88;4972555;28;20038;-86
2022/04/21 07:56:09;;;;;;;7.15;5.15;;;;;;;17.39;34.86;101113.97;4982665;28;20474;-87
2022/04/21 07:58:34;;;;;;;9.70;5.70;;;;;;;17.73;34.35;101108.69;4974564;28;20043;-87
2022/04/21 08:00:59;;;;;;;7.18;5.25;;;;;;;18.19;34.58;101103.31;4955316;28;20125;-86
2022/04/21 08:03:26;;;;;;;6.28;5.32;;;;;;;18.53;33.35;101111.41;4964050;28;20480;-86
2022/04/21 08:05:51;;;;;;;7.57;5.13;;;;;;;18.63;32.89;101102.47;4985734;28;20034;-86
2022/04/21 08:08:16;;;;;;;6.75;4.80;;;;;;;18.90;32.85;101114.72;4980764;28;20097;-86
2022/04/21 08:10:42;;;;;;;7.20;5.07;;;;;;;19.07;32.66;101114.22;4973971;28;20035;-89
2022/04/21 08:13:07;;;;;;;6.75;4.75;;;;;;;18.98;32.19;101114.97;4975532;28;20026;-88
2022/04/21 08:15:34;;;;;;;10.43;5.03;;;;;;;19.05;32.59;101113.47;4982428;28;20449;-87
2022/04/21 08:18:04;;;;;;;9.15;5.10;;;;;;;19.50;31.82;101110.63;4980027;28;20255;-88
2022/04/21 08:20:32;;;;;;;6.18;5.25;;;;;;;19.35;32.19;101114.59;4982591;28;20097;-89
2022/04/21 08:22:57;;;;;;;7.15;5.40;;;;;;;19.44;32.20;101108.44;4975280;28;20034;-87
2022/04/21 08:33:36;;;;;;;6.80;4.97;;;;;;;21.30;29.75;101123.66;4978279;28;20383;-88
2022/04/21 08:36:02;;;;;;;7.72;4.95;;;;;;;21.35;29.63;101115.13;4974999;28;20027;-88
2022/04/21 08:38:28;;;;;;;6.65;4.90;;;;;;;21.80;29.51;101110.00;4981360;28;20463;-88
2022/04/21 08:40:56;;;;;;;8.50;5.43;;;;;;;22.08;29.39;101116.38;4975102;28;20480;-89
2022/04/21 08:43:24;;;;;;;6.75;4.90;;;;;;;22.23;28.40;101102.38;4982200;28;20054;-88
2022/04/21 08:45:50;;;;;;;8.07;4.93;;;;;;;22.46;27.91;101111.88;4985643;28;20038;-88
2022/04/21 08:48:18;;;;;;;6.18;5.18;;;;;;;22.37;28.04;101108.19;4985328;28;20030;-87
2022/04/21 08:50:44;;;;;;;5.55;4.85;;;;;;;22.65;28.02;101104.66;4980274;28;20480;-88
2022/04/21 08:53:13;;;;;;;6.00;4.40;;;;;;;23.09;27.21;101103.88;4984926;28;20030;-88
2022/04/21 08:55:39;;;;;;;6.20;5.22;;;;;;;23.00;26.96;101093.94;4967280;28;20526;-87
2022/04/21 08:58:04;;;;;;;6.43;4.93;;;;;;;23.10;27.55;101092.00;4981548;28;20039;-88
2022/04/21 09:00:31;;;;;;;6.28;4.50;;;;;;;23.56;26.56;101102.78;4960859;28;20053;-89
2022/04/21 09:02:58;;;;;;;5.07;4.15;;;;;;;23.97;26.10;101098.59;4972148;28;20034;-87
2022/04/21 09:05:27;;;;;;;4.32;3.67;;;;;;;24.26;25.19;101095.53;4986111;28;20037;-88
2022/04/21 09:07:52;;;;;;;5.18;3.72;;;;;;;24.45;24.53;101090.91;4968968;28;20038;-88
2022/04/21 09:10:19;;;;;;;8.65;3.78;;;;;;;24.35;24.61;101097.28;4972082;28;20031;-88
2022/04/21 09:12:50;;;;;;;4.68;3.50;;;;;;;24.52;23.92;101091.97;4981383;28;20029;-86
2022/04/21 09:15:17;;;;;;;5.35;3.47;;;;;;;24.53;23.64;101082.78;4978648;28;20034;-88
2022/04/21 09:17:45;;;;;;;4.25;3.67;;;;;;;24.55;23.42;101089.78;4985126;28;20101;-87
2022/04/21 09:20:11;;;;;;;6.88;3.80;;;;;;;25.17;23.47;101097.69;4974800;28;20126;-88
2022/04/21 09:22:41;;;;;;;4.00;3.53;;;;;;;25.49;22.97;101090.56;4975108;28;20038;-89
2022/04/21 09:25:07;;;;;;;12.52;8.55;;;;;;;25.79;22.54;101079.03;4983067;28;20041;-87
2022/04/21 09:27:45;;;;;;;4.88;3.97;;;;;;;25.52;22.90;101079.31;4971207;28;20038;-88
2022/04/21 09:30:14;;;;;;;4.22;3.13;;;;;;;24.73;22.49;101081.50;4965657;28;20034;-88
2022/04/21 09:33:00;;;;;;;4.63;2.78;;;;;;;25.40;22.96;101083.41;4973156;28;20034;-88
2022/04/21 09:35:27;;;;;;;4.38;3.10;;;;;;;25.04;21.00;101080.91;4975536;28;20128;-87
2022/04/21 09:37:55;;;;;;;4.72;3.00;;;;;;;25.13;21.90;101079.13;4974512;28;20335;-87
2022/04/21 09:40:23;;;;;;;5.15;3.10;;;;;;;25.73;21.50;101070.63;4947089;28;20022;-87
2022/04/21 09:42:56;;;;;;;4.68;3.38;;;;;;;26.15;21.37;101069.59;4975006;28;20034;-87
2022/04/21 09:48:17;;;;;;;5.80;3.63;;;;;;;27.50;20.95;101073.88;4972892;28;20045;-87
2022/04/21 09:50:42;;;;;;;4.25;3.45;;;;;;;27.84;20.37;101064.41;4973761;28;20031;-87
2022/04/21 09:53:08;;;;;;;5.53;3.90;;;;;;;27.91;20.36;101063.47;4973345;28;20042;-88
2022/04/21 09:55:34;;;;;;;4.90;3.70;;;;;;;28.08;19.35;101075.09;4976636;28;20033;-86
2022/04/21 09:58:10;;;;;;;6.55;3.58;;;;;;;27.34;20.04;101074.00;4978156;28;20496;-87
2022/04/21 10:00:38;;;;;;;4.55;3.45;;;;;;;27.09;19.56;101076.91;4974116;28;20033;-88
2022/04/21 10:03:05;;;;;;;4.22;3.55;;;;;;;27.68;19.58;101060.75;4972544;28;20397;-87
2022/04/21 10:05:31;;;;;;;5.50;3.55;;;;;;;27.64;19.31;101062.16;4979579;28;20084;-88
2022/04/21 10:08:00;;;;;;;6.95;3.53;;;;;;;27.40;19.40;101065.94;4974847;28;20046;-89
2022/04/21 10:10:27;;;;;;;5.38;3.80;;;;;;;27.81;19.31;101051.97;4976317;28;20085;-89
2022/04/21 10:12:56;;;;;;;4.65;3.65;;;;;;;28.26;18.66;101052.84;4977473;28;20045;-89
2022/04/21 10:15:23;;;;;;;4.53;3.97;;;;;;;28.47;18.21;101052.97;4978807;28;20038;-90
2022/04/21 10:17:49;;;;;;;4.63;3.28;;;;;;;28.98;17.52;101050.25;4982818;28;20120;-89
2022/04/21 10:20:14;;;;;;;5.43;3.35;;;;;;;28.88;16.67;101057.88;4975552;28;20035;-89
2022/04/21 10:22:40;;;;;;;3.53;2.90;;;;;;;28.56;16.96;101052.88;4967464;28;20462;-90
2022/04/21 10:25:06;;;;;;;4.07;3.33;;;;;;;28.72;17.02;101049.94;4975069;28;20479;-89
2022/04/21 10:27:35;;;;;;;6.38;4.25;;;;;;;29.53;16.53;101058.81;4955948;28;20127;-89
2022/04/21 10:30:01;;;;;;;4.95;3.55;;;;;;;29.40;15.85;101042.25;4981753;28;20030;-89
2022/04/21 10:32:55;;;;;;;3.65;3.05;;;;;;;29.94;16.79;101041.66;4978815;28;20044;-90
2022/04/21 10:35:24;;;;;;;5.28;3.47;;;;;;;30.26;15.94;101037.44;4978863;28;20443;-89
2022/04/21 10:38:13;;;;;;;6.13;2.67;;;;;;;31.34;15.87;101033.00;4981339;28;20034;-89
2022/04/21 10:40:57;;;;;;;4.53;2.47;;;;;;;31.42;14.39;101043.81;4968183;28;20528;-88
2022/04/21 10:43:23;;;;;;;3.03;2.10;;;;;;;30.47;13.90;101026.38;4978644;28;20032;-88
2022/04/21 10:46:17;;;;;;;2.78;1.95;;;;;;;31.13;14.79;101023.00;4976266;28;20089;-89
2022/04/21 10:48:43;;;;;;;2.97;2.38;;;;;;;31.29;13.41;101027.31;4981367;28;20038;-88
2022/04/21 10:51:11;;;;;;;2.20;1.83;;;;;;;31.12;12.90;101004.84;4981663;28;20023;-89
2022/04/21 10:59:47;;;;;;;2.33;2.00;;;;;;;30.67;13.16;101012.72;4972391;28;20589;-88
2022/04/21 11:02:13;;;;;;;2.97;1.90;;;;;;;31.20;13.01;101020.28;4976172;28;20026;-89
2022/04/21 11:04:38;;;;;;;3.22;1.95;;;;;;;30.32;13.45;101006.44;4959644;28;20054;-89
2022/04/21 11:07:07;;;;;;;3.55;1.70;;;;;;;30.81;13.46;101012.78;4974214;28;20476;-88
2022/04/21 11:09:50;;;;;;;3.70;1.90;;;;;;;31.22;13.84;100997.00;4974029;28;20106;-89
2022/04/21 11:12:37;;;;;;;2.25;2.05;;;;;;;31.85;13.11;100999.38;4955923;28;20335;-88
2022/04/21 11:15:33;;;;;;;3.10;1.90;;;;;;;32.34;13.08;100995.22;4980523;28;20038;-88
2022/04/21 11:18:10;;;;;;;3.22;2.00;;;;;;;32.05;12.19;101004.00;4975899;28;20125;-87
2022/04/21 11:20:37;;;;;;;3.38;2.17;;;;;;;32.27;12.27;100986.13;4980082;28;20030;-90
2022/04/21 11:23:31;;;;;;;3.92;2.08;;;;;;;33.35;13.30;100991.72;4975519;28;20037;-88
2022/04/21 11:26:09;;;;;;;3.42;1.92;;;;;;;33.40;12.86;100982.75;4946327;28;20129;-88
2022/04/21 11:28:35;;;;;;;2.97;2.15;;;;;;;32.84;11.77;100986.31;4969215;28;20030;-88
2022/04/21 11:31:03;;;;;;;3.75;2.10;;;;;;;32.37;12.04;100974.69;4974613;28;20213;-88
2022/04/21 11:33:28;;;;;;;3.67;2.03;;;;;;;32.64;11.71;100983.69;4980124;28;20045;-89
2022/04/21 11:36:01;;;;;;;4.72;2.30;;;;;;;32.48;12.59;100971.25;4986257;28;20405;-89
2022/04/21 11:38:27;;;;;;;;;;;;;;;33.64;12.40;100970.06;4992369;28;20439;-88
2022/04/21 11:40:52;;;;;;;4.60;2.58;;;;;;;32.51;12.13;100958.94;4974413;28;20224;-87
2022/04/21 11:43:17;;;;;;;3.38;2.20;;;;;;;32.91;12.16;100968.69;4980070;28;20030;-88
2022/04/21 11:46:05;;;;;;;3.80;2.08;;;;;;;33.23;12.85;100974.19;4966219;28;20392;-88
2022/04/21 11:48:40;;;;;;;3.63;2.50;;;;;;;32.14;12.74;100964.16;4974838;28;20037;-88
2022/04/21 11:51:06;;;;;;;6.35;2.28;;;;;;;31.68;12.63;100960.41;4977720;28;20042;-88
2022/04/21 11:53:40;;;;;;;3.53;2.90;;;;;;;31.82;12.78;100964.00;4979848;28;20026;-86
2022/04/21 11:56:11;;;;;;;6.57;2.35;;;;;;;31.10;13.62;100960.22;4971346;28;20085;-88
2022/04/21 11:58:41;;;;;;;3.15;2.42;;;;;;;31.16;13.74;100973.13;4973256;28;20976;-89
2022/04/21 12:06:58;;;;;;;3.28;1.98;;;;;;;32.13;13.23;100944.03;4977823;28;20096;-88
2022/04/21 12:09:25;;;;;;;4.90;2.75;;;;;;;32.16;12.94;100951.03;4975005;28;20527;-88
2022/04/21 12:11:57;;;;;;;3.92;2.20;;;;;;;31.61;12.93;100953.25;4970559;28;20037;-88
2022/04/21 12:14:24;;;;;;;2.53;2.33;;;;;;;31.58;13.23;100956.44;4973606;28;20026;-89
2022/04/21 12:16:54;;;;;;;4.20;2.30;;;;;;;32.10;12.52;100946.38;4980806;28;20030;-88
2022/04/21 12:19:33;;;;;;;2.35;2.15;;;;;;;32.40;13.01;100941.22;4983016;28;20121;-89
2022/04/21 12:22:01;;;;;;;5.60;2.88;;;;;;;32.58;12.57;100948.75;4982518;28;20164;-88
2022/04/21 12:24:29;;;;;;;3.80;2.58;;;;;;;32.78;12.65;100948.63;4979393;28;20045;-88